sensor_id;sensor_type;location;lat;lon;timestamp;pressure;altitude;pressure_sealevel;temperature;humidity
53270;BME280;39159;45.634;9.420;2023-07-13T00:01:29;98581.75;;;18.91;100.00
53270;BME280;39159;45.634;9.420;2023-07-13T00:03:56;98579.72;;;18.88;100.00
53270;BME280;39159;45.634;9.420;2023-07-13T00:06:22;98574.94;;;18.84;100.00
53270;BME280;39159;45.634;9.420;2023-07-13T00:08:48;98580.47;;;18.84;100.00
53270;BME280;39159;45.634;9.420;2023-07-13T00:11:15;98589.94;;;18.83;100.00
53270;BME280;39159;45.634;9.420;2023-07-13T00:13:42;98594.44;;;18.95;100.00
53270;BME280;39159;45.634;9.420;2023-07-13T00:16:09;98580.41;;;19.08;100.00
53270;BME280;39159;45.634;9.420;2023-07-13T00:18:35;98590.22;;;19.05;100.00
53270;BME280;39159;45.634;9.420;2023-07-13T00:21:01;98577.69;;;19.11;100.00
53270;BME280;39159;45.634;9.420;2023-07-13T00:23:38;98585.88;;;19.04;100.00
53270;BME280;39159;45.634;9.420;2023-07-13T00:26:06;98593.84;;;19.09;100.00
53270;BME280;39159;45.634;9.420;2023-07-13T00:28:32;98588.75;;;19.11;100.00
53270;BME280;39159;45.634;9.420;2023-07-13T00:30:58;98587.00;;;18.99;100.00
53270;BME280;39159;45.634;9.420;2023-07-13T00:33:23;98598.59;;;18.82;100.00
53270;BME280;39159;45.634;9.420;2023-07-13T00:35:49;98606.19;;;18.89;100.00
53270;BME280;39159;45.634;9.420;2023-07-13T00:38:15;98606.19;;;18.89;100.00
53270;BME280;39159;45.634;9.420;2023-07-13T00:40:41;98611.19;;;18.79;100.00
53270;BME280;39159;45.634;9.420;2023-07-13T00:43:22;98623.59;;;18.66;100.00
53270;BME280;39159;45.634;9.420;2023-07-13T00:48:24;98628.38;;;18.69;100.00
53270;BME280;39159;45.634;9.420;2023-07-13T00:50:52;98630.78;;;18.71;100.00
53270;BME280;39159;45.634;9.420;2023-07-13T00:53:19;98632.53;;;18.79;100.00
53270;BME280;39159;45.634;9.420;2023-07-13T00:55:47;98632.66;;;18.90;100.00
53270;BME280;39159;45.634;9.420;2023-07-13T00:58:14;98627.56;;;18.92;100.00
53270;BME280;39159;45.634;9.420;2023-07-13T01:00:41;98617.88;;;19.05;100.00
53270;BME280;39159;45.634;9.420;2023-07-13T01:03:07;98630.59;;;19.10;100.00
53270;BME280;39159;45.634;9.420;2023-07-13T01:05:34;98618.03;;;19.16;100.00
53270;BME280;39159;45.634;9.420;2023-07-13T01:08:01;98616.75;;;19.10;100.00
53270;BME280;39159;45.634;9.420;2023-07-13T01:10:27;98616.94;;;18.94;100.00
53270;BME280;39159;45.634;9.420;2023-07-13T01:12:53;98624.88;;;18.95;100.00
53270;BME280;39159;45.634;9.420;2023-07-13T01:15:39;98626.09;;;18.98;100.00
53270;BME280;39159;45.634;9.420;2023-07-13T01:18:07;98622.53;;;18.97;100.00
53270;BME280;39159;45.634;9.420;2023-07-13T01:20:35;98617.88;;;19.05;100.00
53270;BME280;39159;45.634;9.420;2023-07-13T01:23:06;98621.94;;;19.11;100.00
53270;BME280;39159;45.634;9.420;2023-07-13T01:25:34;98620.03;;;19.15;100.00
53270;BME280;39159;45.634;9.420;2023-07-13T01:28:01;98619.25;;;19.18;100.00
53270;BME280;39159;45.634;9.420;2023-07-13T01:30:27;98625.56;;;19.15;100.00
53270;BME280;39159;45.634;9.420;2023-07-13T01:32:52;98629.06;;;19.12;100.00
53270;BME280;39159;45.634;9.420;2023-07-13T01:35:18;98625.97;;;19.17;100.00
53270;BME280;39159;45.634;9.420;2023-07-13T01:37:43;98629.91;;;19.16;100.00
53270;BME280;39159;45.634;9.420;2023-07-13T01:40:11;98622.84;;;19.19;100.00
53270;BME280;39159;45.634;9.420;2023-07-13T01:42:37;98620.53;;;19.24;100.00
53270;BME280;39159;45.634;9.420;2023-07-13T01:45:03;98630.03;;;19.23;100.00
53270;BME280;39159;45.634;9.420;2023-07-13T01:47:29;98627.25;;;19.23;100.00
53270;BME280;39159;45.634;9.420;2023-07-13T01:49:56;98625.28;;;19.24;100.00
53270;BME280;39159;45.634;9.420;2023-07-13T01:52:22;98626.94;;;19.29;100.00
53270;BME280;39159;45.634;9.420;2023-07-13T01:54:47;98630.53;;;19.33;100.00
53270;BME280;39159;45.634;9.420;2023-07-13T01:57:13;98631.81;;;19.39;100.00
53270;BME280;39159;45.634;9.420;2023-07-13T01:59:38;98625.94;;;19.44;100.00
53270;BME280;39159;45.634;9.420;2023-07-13T02:02:04;98624.88;;;19.52;100.00
53270;BME280;39159;45.634;9.420;2023-07-13T02:04:29;98622.47;;;19.51;100.00
53270;BME280;39159;45.634;9.420;2023-07-13T02:06:55;98626.09;;;19.55;100.00
53270;BME280;39159;45.634;9.420;2023-07-13T02:09:21;98617.09;;;19.61;100.00
53270;BME280;39159;45.634;9.420;2023-07-13T02:11:46;98618.59;;;19.55;100.00
53270;BME280;39159;45.634;9.420;2023-07-13T02:14:11;98619.72;;;19.51;100.00
53270;BME280;39159;45.634;9.420;2023-07-13T02:16:37;98626.47;;;19.53;100.00
53270;BME280;39159;45.634;9.420;2023-07-13T02:19:02;98622.81;;;19.45;100.00
53270;BME280;39159;45.634;9.420;2023-07-13T02:21:28;98626.38;;;19.46;100.00
53270;BME280;39159;45.634;9.420;2023-07-13T02:23:54;98625.09;;;19.40;100.00
53270;BME280;39159;45.634;9.420;2023-07-13T02:26:20;98618.41;;;19.41;100.00
53270;BME280;39159;45.634;9.420;2023-07-13T02:28:45;98616.78;;;19.40;100.00
53270;BME280;39159;45.634;9.420;2023-07-13T02:31:14;98621.72;;;19.54;100.00
53270;BME280;39159;45.634;9.420;2023-07-13T02:33:40;98617.09;;;19.61;100.00
53270;BME280;39159;45.634;9.420;2023-07-13T02:36:06;98621.78;;;19.57;100.00
53270;BME280;39159;45.634;9.420;2023-07-13T02:38:32;98622.53;;;19.54;100.00
53270;BME280;39159;45.634;9.420;2023-07-13T02:41:03;98626.09;;;19.55;100.00
53270;BME280;39159;45.634;9.420;2023-07-13T02:43:28;98618.66;;;19.62;100.00
53270;BME280;39159;45.634;9.420;2023-07-13T02:45:55;98619.09;;;19.64;100.00
53270;BME280;39159;45.634;9.420;2023-07-13T02:48:20;98619.44;;;19.59;100.00
53270;BME280;39159;45.634;9.420;2023-07-13T02:50:45;98632.91;;;19.61;100.00
53270;BME280;39159;45.634;9.420;2023-07-13T02:53:11;98632.06;;;19.57;100.00
53270;BME280;39159;45.634;9.420;2023-07-13T02:55:37;98631.22;;;19.56;100.00
53270;BME280;39159;45.634;9.420;2023-07-13T02:58:02;98631.22;;;19.56;100.00
53270;BME280;39159;45.634;9.420;2023-07-13T03:00:28;98632.00;;;19.53;100.00
53270;BME280;39159;45.634;9.420;2023-07-13T03:02:54;98631.28;;;19.60;100.00
53270;BME280;39159;45.634;9.420;2023-07-13T03:05:22;98640.03;;;19.62;100.00
53270;BME280;39159;45.634;9.420;2023-07-13T03:07:47;98639.25;;;19.65;100.00
53270;BME280;39159;45.634;9.420;2023-07-13T03:10:13;98647.19;;;19.66;100.00
53270;BME280;39159;45.634;9.420;2023-07-13T03:12:38;98648.38;;;19.65;100.00
53270;BME280;39159;45.634;9.420;2023-07-13T03:15:04;98644.75;;;19.61;100.00
53270;BME280;39159;45.634;9.420;2023-07-13T03:17:30;98650.94;;;19.51;100.00
53270;BME280;39159;45.634;9.420;2023-07-13T03:19:55;98647.81;;;19.53;100.00
53270;BME280;39159;45.634;9.420;2023-07-13T03:22:21;98648.69;;;19.60;100.00
53270;BME280;39159;45.634;9.420;2023-07-13T03:24:46;98641.75;;;19.70;100.00
53270;BME280;39159;45.634;9.420;2023-07-13T03:27:14;98637.84;;;19.75;100.00
53270;BME280;39159;45.634;9.420;2023-07-13T03:29:40;98647.72;;;19.76;100.00
53270;BME280;39159;45.634;9.420;2023-07-13T03:32:06;98643.38;;;19.75;100.00
53270;BME280;39159;45.634;9.420;2023-07-13T03:34:31;98633.09;;;19.75;100.00
53270;BME280;39159;45.634;9.420;2023-07-13T03:36:57;98631.19;;;19.83;100.00
53270;BME280;39159;45.634;9.420;2023-07-13T03:39:23;98629.69;;;19.89;100.00
53270;BME280;39159;45.634;9.420;2023-07-13T03:41:49;98628.09;;;19.88;100.00
53270;BME280;39159;45.634;9.420;2023-07-13T03:44:16;98636.00;;;19.86;100.00
53270;BME280;39159;45.634;9.420;2023-07-13T03:46:43;98634.78;;;19.83;100.00
53270;BME280;39159;45.634;9.420;2023-07-13T03:49:09;98633.16;;;19.79;100.00
53270;BME280;39159;45.634;9.420;2023-07-13T03:51:35;98627.22;;;19.80;100.00
53270;BME280;39159;45.634;9.420;2023-07-13T03:54:01;98634.25;;;19.74;100.00
53270;BME280;39159;45.634;9.420;2023-07-13T03:56:27;98629.13;;;19.73;100.00
53270;BME280;39159;45.634;9.420;2023-07-13T03:58:53;98638.97;;;19.70;100.00
53270;BME280;39159;45.634;9.420;2023-07-13T04:01:20;98627.50;;;19.72;100.00
53270;BME280;39159;45.634;9.420;2023-07-13T04:03:46;98631.88;;;19.73;100.00
53270;BME280;39159;45.634;9.420;2023-07-13T04:06:16;98627.19;;;19.77;100.00
53270;BME280;39159;45.634;9.420;2023-07-13T04:08:47;98642.69;;;19.85;100.00
53270;BME280;39159;45.634;9.420;2023-07-13T04:11:13;98625.75;;;19.90;100.00
53270;BME280;39159;45.634;9.420;2023-07-13T04:13:38;98638.50;;;19.98;100.00
53270;BME280;39159;45.634;9.420;2023-07-13T04:16:04;98640.53;;;20.01;100.00
53270;BME280;39159;45.634;9.420;2023-07-13T04:18:29;98641.75;;;20.07;100.00
53270;BME280;39159;45.634;9.420;2023-07-13T04:20:55;98641.75;;;20.07;100.00
53270;BME280;39159;45.634;9.420;2023-07-13T04:23:20;98645.38;;;20.12;100.00
53270;BME280;39159;45.634;9.420;2023-07-13T04:25:47;98641.84;;;20.15;100.00
53270;BME280;39159;45.634;9.420;2023-07-13T04:28:15;98641.03;;;20.14;100.00
53270;BME280;39159;45.634;9.420;2023-07-13T04:30:40;98651.00;;;20.19;100.00
53270;BME280;39159;45.634;9.420;2023-07-13T04:33:06;98650.25;;;20.22;100.00
53270;BME280;39159;45.634;9.420;2023-07-13T04:35:34;98655.00;;;20.25;100.00
53270;BME280;39159;45.634;9.420;2023-07-13T04:38:00;98670.47;;;20.26;100.00
53270;BME280;39159;45.634;9.420;2023-07-13T04:40:27;98661.38;;;20.29;100.00
53270;BME280;39159;45.634;9.420;2023-07-13T04:42:52;98677.66;;;20.31;100.00
53270;BME280;39159;45.634;9.420;2023-07-13T04:45:18;98669.25;;;20.23;100.00
53270;BME280;39159;45.634;9.420;2023-07-13T04:47:43;98681.16;;;20.27;100.00
53270;BME280;39159;45.634;9.420;2023-07-13T04:50:09;98683.59;;;20.33;100.00
53270;BME280;39159;45.634;9.420;2023-07-13T04:52:36;98681.63;;;20.33;100.00
53270;BME280;39159;45.634;9.420;2023-07-13T04:55:01;98688.00;;;20.37;100.00
53270;BME280;39159;45.634;9.420;2023-07-13T04:57:27;98679.75;;;20.44;100.00
53270;BME280;39159;45.634;9.420;2023-07-13T04:59:53;98678.19;;;20.47;100.00
53270;BME280;39159;45.634;9.420;2023-07-13T05:02:21;98677.34;;;20.39;100.00
53270;BME280;39159;45.634;9.420;2023-07-13T05:04:47;98681.69;;;20.40;100.00
53270;BME280;39159;45.634;9.420;2023-07-13T05:07:13;98681.28;;;20.38;100.00
53270;BME280;39159;45.634;9.420;2023-07-13T05:09:39;98678.84;;;20.33;100.00
53270;BME280;39159;45.634;9.420;2023-07-13T05:12:06;98669.69;;;20.29;100.00
53270;BME280;39159;45.634;9.420;2023-07-13T05:14:32;98670.47;;;20.26;100.00
53270;BME280;39159;45.634;9.420;2023-07-13T05:16:58;98670.13;;;20.31;100.00
53270;BME280;39159;45.634;9.420;2023-07-13T05:19:23;98671.34;;;20.34;100.00
53270;BME280;39159;45.634;9.420;2023-07-13T05:21:49;98662.66;;;20.35;100.00
53270;BME280;39159;45.634;9.420;2023-07-13T05:24:14;98659.94;;;20.42;100.00
53270;BME280;39159;45.634;9.420;2023-07-13T05:26:39;98657.22;;;20.46;100.00
53270;BME280;39159;45.634;9.420;2023-07-13T05:29:05;98669.50;;;20.48;100.00
53270;BME280;39159;45.634;9.420;2023-07-13T05:31:30;98667.16;;;20.50;100.00
53270;BME280;39159;45.634;9.420;2023-07-13T05:33:56;98674.31;;;20.55;100.00
53270;BME280;39159;45.634;9.420;2023-07-13T05:36:21;98674.78;;;20.57;100.00
53270;BME280;39159;45.634;9.420;2023-07-13T05:38:46;98671.63;;;20.59;100.00
53270;BME280;39159;45.634;9.420;2023-07-13T05:41:12;98681.53;;;20.60;100.00
53270;BME280;39159;45.634;9.420;2023-07-13T05:43:37;98685.50;;;20.59;100.00
53270;BME280;39159;45.634;9.420;2023-07-13T05:46:03;98683.16;;;20.64;100.00
53270;BME280;39159;45.634;9.420;2023-07-13T05:48:28;98679.22;;;20.65;100.00
53270;BME280;39159;45.634;9.420;2023-07-13T05:50:54;98679.66;;;20.71;100.00
53270;BME280;39159;45.634;9.420;2023-07-13T05:53:19;98686.19;;;20.93;100.00
53270;BME280;39159;45.634;9.420;2023-07-13T05:55:46;98680.78;;;21.11;100.00
53270;BME280;39159;45.634;9.420;2023-07-13T05:58:16;98684.03;;;21.24;100.00
53270;BME280;39159;45.634;9.420;2023-07-13T06:00:43;98683.25;;;21.23;100.00
53270;BME280;39159;45.634;9.420;2023-07-13T06:03:08;98696.31;;;21.23;100.00
53270;BME280;39159;45.634;9.420;2023-07-13T06:05:35;98705.03;;;21.21;100.00
53270;BME280;39159;45.634;9.420;2023-07-13T06:08:02;98701.78;;;21.12;100.00
53270;BME280;39159;45.634;9.420;2023-07-13T06:10:27;98703.06;;;21.22;100.00
53270;BME280;39159;45.634;9.420;2023-07-13T06:12:53;98701.44;;;21.17;100.00
53270;BME280;39159;45.634;9.420;2023-07-13T06:15:18;98714.53;;;21.20;100.00
53270;BME280;39159;45.634;9.420;2023-07-13T06:17:43;98715.72;;;21.19;100.00
53270;BME280;39159;45.634;9.420;2023-07-13T06:20:10;98717.34;;;21.27;100.00
53270;BME280;39159;45.634;9.420;2023-07-13T06:22:35;98724.59;;;21.39;100.00
53270;BME280;39159;45.634;9.420;2023-07-13T06:25:00;98723.19;;;21.63;100.00
53270;BME280;39159;45.634;9.420;2023-07-13T06:27:26;98714.94;;;21.78;100.00
53270;BME280;39159;45.634;9.420;2023-07-13T06:29:52;98720.19;;;21.97;100.00
53270;BME280;39159;45.634;9.420;2023-07-13T06:32:17;98718.72;;;22.25;100.00
53270;BME280;39159;45.634;9.420;2023-07-13T06:34:42;98716.34;;;22.23;100.00
53270;BME280;39159;45.634;9.420;2023-07-13T06:37:09;98713.19;;;22.35;100.00
53270;BME280;39159;45.634;9.420;2023-07-13T06:39:34;98723.56;;;22.53;100.00
53270;BME280;39159;45.634;9.420;2023-07-13T06:42:00;98709.31;;;22.69;100.00
53270;BME280;39159;45.634;9.420;2023-07-13T06:44:25;98707.72;;;22.93;100.00
53270;BME280;39159;45.634;9.420;2023-07-13T06:46:51;98701.75;;;22.87;100.00
53270;BME280;39159;45.634;9.420;2023-07-13T06:49:16;98714.50;;;23.03;100.00
53270;BME280;39159;45.634;9.420;2023-07-13T06:51:42;98711.31;;;23.18;100.00
53270;BME280;39159;45.634;9.420;2023-07-13T06:54:07;98719.66;;;23.36;100.00
53270;BME280;39159;45.634;9.420;2023-07-13T06:56:33;98729.59;;;23.59;100.00
53270;BME280;39159;45.634;9.420;2023-07-13T06:58:58;98742.28;;;23.67;100.00
53270;BME280;39159;45.634;9.420;2023-07-13T07:01:24;98744.28;;;23.67;100.00
53270;BME280;39159;45.634;9.420;2023-07-13T07:03:49;98747.50;;;23.79;100.00
53270;BME280;39159;45.634;9.420;2023-07-13T07:06:20;98733.97;;;23.60;100.00
53270;BME280;39159;45.634;9.420;2023-07-13T07:08:49;98737.19;;;23.37;100.00
53270;BME280;39159;45.634;9.420;2023-07-13T07:11:18;98726.44;;;23.28;100.00
53270;BME280;39159;45.634;9.420;2023-07-13T07:13:44;98723.25;;;23.30;100.00
53270;BME280;39159;45.634;9.420;2023-07-13T07:16:09;98723.28;;;23.26;100.00
53270;BME280;39159;45.634;9.420;2023-07-13T07:18:35;98723.25;;;23.30;100.00
53270;BME280;39159;45.634;9.420;2023-07-13T07:21:01;98722.44;;;23.36;100.00
53270;BME280;39159;45.634;9.420;2023-07-13T07:23:26;98719.28;;;23.16;100.00
53270;BME280;39159;45.634;9.420;2023-07-13T07:25:52;98722.06;;;23.16;100.00
53270;BME280;39159;45.634;9.420;2023-07-13T07:28:17;98718.47;;;23.23;100.00
53270;BME280;39159;45.634;9.420;2023-07-13T07:30:44;98721.25;;;23.23;100.00
53270;BME280;39159;45.634;9.420;2023-07-13T07:33:10;98723.97;;;23.70;100.00
53270;BME280;39159;45.634;9.420;2023-07-13T07:35:35;98729.19;;;23.64;100.00
53270;BME280;39159;45.634;9.420;2023-07-13T07:38:01;98732.78;;;23.61;100.00
53270;BME280;39159;45.634;9.420;2023-07-13T07:40:26;98730.75;;;23.65;100.00
53270;BME280;39159;45.634;9.420;2023-07-13T07:42:52;98727.97;;;23.69;100.00
53270;BME280;39159;45.634;9.420;2023-07-13T07:45:18;98735.16;;;23.66;100.00
53270;BME280;39159;45.634;9.420;2023-07-13T07:47:44;98750.06;;;24.33;100.00
53270;BME280;39159;45.634;9.420;2023-07-13T07:50:10;98749.56;;;24.64;95.31
53270;BME280;39159;45.634;9.420;2023-07-13T07:52:35;98763.63;;;24.28;94.74
53270;BME280;39159;45.634;9.420;2023-07-13T07:55:01;98762.00;;;24.48;96.82
53270;BME280;39159;45.634;9.420;2023-07-13T07:57:26;98766.75;;;24.51;98.54
53270;BME280;39159;45.634;9.420;2023-07-13T07:59:52;98777.56;;;24.31;95.42
53270;BME280;39159;45.634;9.420;2023-07-13T08:02:17;98773.97;;;24.38;96.30
53270;BME280;39159;45.634;9.420;2023-07-13T08:04:43;98778.72;;;24.45;93.56
53270;BME280;39159;45.634;9.420;2023-07-13T08:07:09;98773.13;;;24.45;93.66
53270;BME280;39159;45.634;9.420;2023-07-13T08:09:34;98777.03;;;24.65;93.81
53270;BME280;39159;45.634;9.420;2023-07-13T08:12:00;98781.84;;;24.61;92.36
53270;BME280;39159;45.634;9.420;2023-07-13T08:14:25;98779.09;;;24.54;94.31
53270;BME280;39159;45.634;9.420;2023-07-13T08:16:51;98778.69;;;24.59;92.17
53270;BME280;39159;45.634;9.420;2023-07-13T08:19:17;98777.94;;;24.40;91.80
53270;BME280;39159;45.634;9.420;2023-07-13T08:21:43;98773.06;;;24.63;93.74
53270;BME280;39159;45.634;9.420;2023-07-13T08:24:09;98775.41;;;24.75;95.41
53270;BME280;39159;45.634;9.420;2023-07-13T08:26:34;98780.22;;;24.71;92.42
53270;BME280;39159;45.634;9.420;2023-07-13T08:29:00;98774.38;;;25.10;91.54
53270;BME280;39159;45.634;9.420;2023-07-13T08:31:26;98769.41;;;25.32;88.55
53270;BME280;39159;45.634;9.420;2023-07-13T08:33:51;98768.88;;;24.99;84.98
53270;BME280;39159;45.634;9.420;2023-07-13T08:36:17;98757.38;;;24.90;86.14
53270;BME280;39159;45.634;9.420;2023-07-13T08:38:42;98761.38;;;24.86;82.63
53270;BME280;39159;45.634;9.420;2023-07-13T08:41:14;98758.50;;;24.96;83.60
53270;BME280;39159;45.634;9.420;2023-07-13T08:43:41;98747.72;;;25.51;83.04
53270;BME280;39159;45.634;9.420;2023-07-13T08:48:50;98750.03;;;26.32;83.75
53270;BME280;39159;45.634;9.420;2023-07-13T08:51:28;98750.22;;;26.17;78.34
53270;BME280;39159;45.634;9.420;2023-07-13T08:54:00;98745.22;;;26.01;77.83
53270;BME280;39159;45.634;9.420;2023-07-13T08:56:29;98750.22;;;26.48;74.57
53270;BME280;39159;45.634;9.420;2023-07-13T08:59:06;98744.63;;;26.79;70.46
53270;BME280;39159;45.634;9.420;2023-07-13T09:01:54;98751.66;;;27.14;72.76
53270;BME280;39159;45.634;9.420;2023-07-13T09:04:50;98755.00;;;27.56;68.60
53270;BME280;39159;45.634;9.420;2023-07-13T09:12:30;98769.63;;;27.91;65.19
53270;BME280;39159;45.634;9.420;2023-07-13T09:14:59;98764.72;;;27.72;63.81
53270;BME280;39159;45.634;9.420;2023-07-13T09:17:29;98779.63;;;27.18;69.21
53270;BME280;39159;45.634;9.420;2023-07-13T09:20:03;98780.50;;;27.15;73.77
53270;BME280;39159;45.634;9.420;2023-07-13T09:22:36;98784.63;;;27.06;72.39
53270;BME280;39159;45.634;9.420;2023-07-13T09:27:48;98787.84;;;27.05;71.68
53270;BME280;39159;45.634;9.420;2023-07-13T09:32:50;98790.38;;;26.69;73.17
53270;BME280;39159;45.634;9.420;2023-07-13T09:35:19;98800.34;;;26.35;70.02
53270;BME280;39159;45.634;9.420;2023-07-13T09:37:46;98798.59;;;26.14;73.85
53270;BME280;39159;45.634;9.420;2023-07-13T09:40:20;98793.44;;;26.13;73.23
53270;BME280;39159;45.634;9.420;2023-07-13T09:42:48;98805.81;;;26.12;71.64
53270;BME280;39159;45.634;9.420;2023-07-13T09:45:20;98808.59;;;26.15;71.29
53270;BME280;39159;45.634;9.420;2023-07-13T09:47:59;98809.50;;;26.39;72.28
53270;BME280;39159;45.634;9.420;2023-07-13T09:50:25;98797.75;;;26.55;75.26
53270;BME280;39159;45.634;9.420;2023-07-13T09:52:50;98802.34;;;26.69;76.19
53270;BME280;39159;45.634;9.420;2023-07-13T09:57:52;98804.66;;;26.74;77.51
53270;BME280;39159;45.634;9.420;2023-07-13T10:00:29;98795.22;;;26.64;73.55
53270;BME280;39159;45.634;9.420;2023-07-13T10:03:09;98801.81;;;26.47;72.19
53270;BME280;39159;45.634;9.420;2023-07-13T10:05:43;98794.00;;;26.65;75.36
53270;BME280;39159;45.634;9.420;2023-07-13T10:08:35;98792.56;;;26.81;75.08
53270;BME280;39159;45.634;9.420;2023-07-13T10:11:14;98790.75;;;26.98;74.79
53270;BME280;39159;45.634;9.420;2023-07-13T10:13:51;98791.00;;;26.80;73.06
53270;BME280;39159;45.634;9.420;2023-07-13T10:16:19;98790.47;;;27.16;71.92
53270;BME280;39159;45.634;9.420;2023-07-13T10:21:54;98795.59;;;26.94;73.17
53270;BME280;39159;45.634;9.420;2023-07-13T10:24:30;98789.31;;;27.13;69.80
53270;BME280;39159;45.634;9.420;2023-07-13T10:27:18;98791.22;;;27.20;68.67
53270;BME280;39159;45.634;9.420;2023-07-13T10:29:47;98785.91;;;27.53;71.57
53270;BME280;39159;45.634;9.420;2023-07-13T10:32:14;98777.25;;;27.90;68.41
53270;BME280;39159;45.634;9.420;2023-07-13T10:34:43;98784.84;;;28.10;67.63
53270;BME280;39159;45.634;9.420;2023-07-13T10:37:20;98785.00;;;28.03;66.24
53270;BME280;39159;45.634;9.420;2023-07-13T10:39:47;98786.06;;;27.65;68.68
53270;BME280;39159;45.634;9.420;2023-07-13T10:42:17;98774.22;;;28.21;67.96
53270;BME280;39159;45.634;9.420;2023-07-13T10:44:45;98763.34;;;28.63;67.30
53270;BME280;39159;45.634;9.420;2023-07-13T10:47:15;98768.34;;;28.72;64.26
53270;BME280;39159;45.634;9.420;2023-07-13T10:49:43;98766.66;;;28.58;64.86
53270;BME280;39159;45.634;9.420;2023-07-13T10:55:31;98763.75;;;28.98;64.30
53270;BME280;39159;45.634;9.420;2023-07-13T10:58:00;98768.41;;;28.88;67.37
53270;BME280;39159;45.634;9.420;2023-07-13T11:00:26;98768.91;;;28.83;68.00
53270;BME280;39159;45.634;9.420;2023-07-13T11:02:57;98760.72;;;29.09;67.96
53270;BME280;39159;45.634;9.420;2023-07-13T11:05:30;98761.50;;;29.26;67.54
53270;BME280;39159;45.634;9.420;2023-07-13T11:08:13;98757.88;;;29.58;63.63
53270;BME280;39159;45.634;9.420;2023-07-13T11:18:45;98744.16;;;28.94;64.84
53270;BME280;39159;45.634;9.420;2023-07-13T11:21:29;98752.16;;;28.80;61.79
53270;BME280;39159;45.634;9.420;2023-07-13T11:29:36;98749.16;;;28.70;60.31
53270;BME280;39159;45.634;9.420;2023-07-13T11:32:22;98750.13;;;28.97;59.84
53270;BME280;39159;45.634;9.420;2023-07-13T11:34:49;98742.06;;;28.99;59.63
53270;BME280;39159;45.634;9.420;2023-07-13T11:37:16;98748.25;;;29.10;58.22
53270;BME280;39159;45.634;9.420;2023-07-13T11:39:46;98747.50;;;28.89;61.27
53270;BME280;39159;45.634;9.420;2023-07-13T11:42:15;98738.03;;;29.32;61.02
53270;BME280;39159;45.634;9.420;2023-07-13T11:44:48;98736.03;;;29.33;60.46
53270;BME280;39159;45.634;9.420;2023-07-13T11:47:19;98724.47;;;29.60;60.65
53270;BME280;39159;45.634;9.420;2023-07-13T11:49:52;98717.94;;;29.50;58.43
53270;BME280;39159;45.634;9.420;2023-07-13T11:52:24;98727.41;;;29.40;58.52
53270;BME280;39159;45.634;9.420;2023-07-13T11:54:55;98729.09;;;29.21;58.55
53270;BME280;39159;45.634;9.420;2023-07-13T11:57:38;98729.81;;;29.09;59.03
53270;BME280;39159;45.634;9.420;2023-07-13T12:00:17;98736.91;;;29.30;57.78
53270;BME280;39159;45.634;9.420;2023-07-13T12:02:47;98752.28;;;29.42;59.02
53270;BME280;39159;45.634;9.420;2023-07-13T12:05:16;98734.41;;;28.99;62.13
53270;BME280;39159;45.634;9.420;2023-07-13T12:07:49;98746.66;;;29.09;62.09
53270;BME280;39159;45.634;9.420;2023-07-13T12:10:19;98749.56;;;29.22;62.14
53270;BME280;39159;45.634;9.420;2023-07-13T12:13:02;98750.00;;;29.20;64.12
53270;BME280;39159;45.634;9.420;2023-07-13T12:15:37;98750.84;;;29.50;62.32
53270;BME280;39159;45.634;9.420;2023-07-13T12:18:20;98746.38;;;29.69;64.47
53270;BME280;39159;45.634;9.420;2023-07-13T12:20:47;98736.31;;;29.84;60.72
53270;BME280;39159;45.634;9.420;2023-07-13T12:23:29;98729.25;;;29.92;58.83
53270;BME280;39159;45.634;9.420;2023-07-13T12:25:55;98724.56;;;29.73;57.74
53270;BME280;39159;45.634;9.420;2023-07-13T12:28:37;98727.41;;;29.40;59.43
53270;BME280;39159;45.634;9.420;2023-07-13T12:31:18;98728.13;;;29.28;58.96
53270;BME280;39159;45.634;9.420;2023-07-13T12:33:47;98729.97;;;29.18;59.68
53270;BME280;39159;45.634;9.420;2023-07-13T12:36:13;98723.19;;;29.32;61.17
53270;BME280;39159;45.634;9.420;2023-07-13T12:38:38;98718.56;;;29.42;60.84
53270;BME280;39159;45.634;9.420;2023-07-13T12:41:08;98728.47;;;28.97;59.79
53270;BME280;39159;45.634;9.420;2023-07-13T12:43:36;98711.16;;;28.99;62.00
53270;BME280;39159;45.634;9.420;2023-07-13T12:46:20;98718.56;;;29.09;62.90
53270;BME280;39159;45.634;9.420;2023-07-13T12:48:56;98712.16;;;29.08;63.76
53270;BME280;39159;45.634;9.420;2023-07-13T12:51:25;98715.34;;;29.10;61.32
53270;BME280;39159;45.634;9.420;2023-07-13T12:53:57;98710.50;;;29.11;64.76
53270;BME280;39159;45.634;9.420;2023-07-13T12:56:26;98717.25;;;28.97;63.74
53270;BME280;39159;45.634;9.420;2023-07-13T12:58:58;98718.09;;;28.94;63.97
53270;BME280;39159;45.634;9.420;2023-07-13T13:01:28;98703.88;;;28.85;64.29
53270;BME280;39159;45.634;9.420;2023-07-13T13:03:54;98692.28;;;28.99;62.91
53270;BME280;39159;45.634;9.420;2023-07-13T13:06:28;98669.81;;;28.99;62.12
53270;BME280;39159;45.634;9.420;2023-07-13T13:08:56;98685.88;;;28.99;62.35
53270;BME280;39159;45.634;9.420;2023-07-13T13:11:24;98684.31;;;29.30;60.24
53270;BME280;39159;45.634;9.420;2023-07-13T13:13:51;98693.00;;;29.36;60.14
53270;BME280;39159;45.634;9.420;2023-07-13T13:18:45;98733.88;;;29.99;63.19
53270;BME280;39159;45.634;9.420;2023-07-13T13:21:11;98749.69;;;29.80;62.80
53270;BME280;39159;45.634;9.420;2023-07-13T13:23:37;98759.56;;;29.55;62.93
53270;BME280;39159;45.634;9.420;2023-07-13T13:26:08;98755.16;;;29.54;63.61
53270;BME280;39159;45.634;9.420;2023-07-13T13:28:34;98749.94;;;28.87;64.90
53270;BME280;39159;45.634;9.420;2023-07-13T13:30:59;98753.59;;;28.68;68.95
53270;BME280;39159;45.634;9.420;2023-07-13T13:33:25;98742.47;;;28.44;67.71
53270;BME280;39159;45.634;9.420;2023-07-13T13:35:50;98741.63;;;28.47;68.28
53270;BME280;39159;45.634;9.420;2023-07-13T13:38:25;98734.34;;;28.86;69.43
53270;BME280;39159;45.634;9.420;2023-07-13T13:40:51;98726.75;;;29.20;67.08